Terminal Aerodrome Forecast
Issued by NWS Grand Forks, ND

Home | Current Version | Previous Version | Graphics & Text | Print | Product List | Glossary On
Versions: 1 2 3 4 5 6 7 8 9 10 11 12 13 14 15 16 17 18
000
FTUS43 KFGF 271731 AAA
TAFFAR
TAF AMD
KFAR 271731Z 2718/2818 33017KT P6SM FEW250
     FM280100 36008KT P6SM SCT080
     FM280800 01004KT P6SM SCT045=

USA.gov is the U.S. government's official web portal to all federal, state and local government web resources and services.